sensor_id;sensor_type;location;lat;lon;timestamp;temperature;humidity
13464;DHT22;6804;48.774;9.174;2023-11-18T00:00:38;8.30;99.90
13464;DHT22;6804;48.774;9.174;2023-11-18T00:03:12;8.30;99.90
13464;DHT22;6804;48.774;9.174;2023-11-18T00:05:41;8.30;99.90
13464;DHT22;6804;48.774;9.174;2023-11-18T00:08:14;8.30;99.90
13464;DHT22;6804;48.774;9.174;2023-11-18T00:10:45;8.30;99.90
13464;DHT22;6804;48.774;9.174;2023-11-18T00:13:13;8.40;99.90
13464;DHT22;6804;48.774;9.174;2023-11-18T00:15:44;8.30;99.90
13464;DHT22;6804;48.774;9.174;2023-11-18T00:18:14;8.30;99.90
13464;DHT22;6804;48.774;9.174;2023-11-18T00:20:43;8.30;99.90
13464;DHT22;6804;48.774;9.174;2023-11-18T00:23:11;8.30;99.90
13464;DHT22;6804;48.774;9.174;2023-11-18T00:25:41;8.30;99.90
13464;DHT22;6804;48.774;9.174;2023-11-18T00:28:14;8.30;99.90
13464;DHT22;6804;48.774;9.174;2023-11-18T00:30:45;8.40;99.90
13464;DHT22;6804;48.774;9.174;2023-11-18T00:33:31;8.30;99.90
13464;DHT22;6804;48.774;9.174;2023-11-18T00:36:05;8.30;99.90
13464;DHT22;6804;48.774;9.174;2023-11-18T00:38:33;8.30;99.90
13464;DHT22;6804;48.774;9.174;2023-11-18T00:41:00;8.30;99.90
13464;DHT22;6804;48.774;9.174;2023-11-18T00:43:30;8.30;99.90
13464;DHT22;6804;48.774;9.174;2023-11-18T00:46:06;8.20;99.90
13464;DHT22;6804;48.774;9.174;2023-11-18T00:48:33;8.20;99.90
13464;DHT22;6804;48.774;9.174;2023-11-18T00:51:03;8.20;99.90
13464;DHT22;6804;48.774;9.174;2023-11-18T00:53:34;8.20;99.90
13464;DHT22;6804;48.774;9.174;2023-11-18T00:56:05;8.10;99.90
13464;DHT22;6804;48.774;9.174;2023-11-18T00:58:36;8.10;99.90
13464;DHT22;6804;48.774;9.174;2023-11-18T01:01:06;8.10;99.90
13464;DHT22;6804;48.774;9.174;2023-11-18T01:03:37;8.10;99.90
13464;DHT22;6804;48.774;9.174;2023-11-18T01:06:07;8.10;99.90
13464;DHT22;6804;48.774;9.174;2023-11-18T01:08:36;8.10;99.90
13464;DHT22;6804;48.774;9.174;2023-11-18T01:11:04;8.10;99.90
13464;DHT22;6804;48.774;9.174;2023-11-18T01:13:34;8.10;99.90
13464;DHT22;6804;48.774;9.174;2023-11-18T01:16:05;8.20;99.90
13464;DHT22;6804;48.774;9.174;2023-11-18T01:18:33;8.20;99.90
13464;DHT22;6804;48.774;9.174;2023-11-18T01:21:01;8.20;99.90
13464;DHT22;6804;48.774;9.174;2023-11-18T01:23:36;8.20;99.90
13464;DHT22;6804;48.774;9.174;2023-11-18T01:26:07;8.20;99.90
13464;DHT22;6804;48.774;9.174;2023-11-18T01:28:36;8.20;99.90
13464;DHT22;6804;48.774;9.174;2023-11-18T01:31:07;8.20;99.90
13464;DHT22;6804;48.774;9.174;2023-11-18T01:33:35;8.10;99.90
13464;DHT22;6804;48.774;9.174;2023-11-18T01:36:07;8.10;99.90
13464;DHT22;6804;48.774;9.174;2023-11-18T01:38:37;8.10;99.90
13464;DHT22;6804;48.774;9.174;2023-11-18T01:41:05;8.20;99.90
13464;DHT22;6804;48.774;9.174;2023-11-18T01:43:35;8.20;99.90
13464;DHT22;6804;48.774;9.174;2023-11-18T01:46:05;8.20;99.90
13464;DHT22;6804;48.774;9.174;2023-11-18T01:48:37;8.10;99.90
13464;DHT22;6804;48.774;9.174;2023-11-18T01:51:06;8.10;99.90
13464;DHT22;6804;48.774;9.174;2023-11-18T01:53:38;8.10;99.90
13464;DHT22;6804;48.774;9.174;2023-11-18T01:56:07;8.10;99.90
13464;DHT22;6804;48.774;9.174;2023-11-18T01:58:37;8.10;99.90
13464;DHT22;6804;48.774;9.174;2023-11-18T02:01:09;8.10;99.90
13464;DHT22;6804;48.774;9.174;2023-11-18T02:03:44;8.10;99.90
13464;DHT22;6804;48.774;9.174;2023-11-18T02:06:13;8.10;99.90
13464;DHT22;6804;48.774;9.174;2023-11-18T02:08:46;8.10;99.90
13464;DHT22;6804;48.774;9.174;2023-11-18T02:11:28;8.10;99.90
13464;DHT22;6804;48.774;9.174;2023-11-18T02:14:01;8.10;99.90
13464;DHT22;6804;48.774;9.174;2023-11-18T02:16:37;8.00;99.90
13464;DHT22;6804;48.774;9.174;2023-11-18T02:19:13;8.10;99.90
13464;DHT22;6804;48.774;9.174;2023-11-18T02:21:47;8.10;99.90
13464;DHT22;6804;48.774;9.174;2023-11-18T02:24:32;8.00;99.90
13464;DHT22;6804;48.774;9.174;2023-11-18T02:27:06;8.10;99.90
13464;DHT22;6804;48.774;9.174;2023-11-18T02:29:40;8.10;99.90
13464;DHT22;6804;48.774;9.174;2023-11-18T02:32:18;8.10;99.90
13464;DHT22;6804;48.774;9.174;2023-11-18T02:34:54;8.10;99.90
13464;DHT22;6804;48.774;9.174;2023-11-18T02:37:26;8.10;99.90
13464;DHT22;6804;48.774;9.174;2023-11-18T02:40:01;8.10;99.90
13464;DHT22;6804;48.774;9.174;2023-11-18T02:42:40;8.20;99.90
13464;DHT22;6804;48.774;9.174;2023-11-18T02:45:09;8.10;99.90
13464;DHT22;6804;48.774;9.174;2023-11-18T02:47:39;8.20;99.90
13464;DHT22;6804;48.774;9.174;2023-11-18T02:50:10;8.20;99.90
13464;DHT22;6804;48.774;9.174;2023-11-18T02:52:40;8.20;99.90
13464;DHT22;6804;48.774;9.174;2023-11-18T02:55:17;8.20;99.90
13464;DHT22;6804;48.774;9.174;2023-11-18T02:57:46;8.20;99.90
13464;DHT22;6804;48.774;9.174;2023-11-18T03:00:14;8.20;99.90
13464;DHT22;6804;48.774;9.174;2023-11-18T03:02:48;8.20;99.90
13464;DHT22;6804;48.774;9.174;2023-11-18T03:05:20;8.20;99.90
13464;DHT22;6804;48.774;9.174;2023-11-18T03:07:48;8.20;99.90
13464;DHT22;6804;48.774;9.174;2023-11-18T03:10:18;8.20;99.90
13464;DHT22;6804;48.774;9.174;2023-11-18T03:13:08;8.20;99.90
13464;DHT22;6804;48.774;9.174;2023-11-18T03:15:38;8.20;99.90
13464;DHT22;6804;48.774;9.174;2023-11-18T03:18:06;8.20;99.90
13464;DHT22;6804;48.774;9.174;2023-11-18T03:20:34;8.20;99.90
13464;DHT22;6804;48.774;9.174;2023-11-18T03:23:09;8.10;99.90
13464;DHT22;6804;48.774;9.174;2023-11-18T03:25:38;8.10;99.90
13464;DHT22;6804;48.774;9.174;2023-11-18T03:28:07;8.00;99.90
13464;DHT22;6804;48.774;9.174;2023-11-18T03:30:36;8.00;99.90
13464;DHT22;6804;48.774;9.174;2023-11-18T03:33:10;8.00;99.90
13464;DHT22;6804;48.774;9.174;2023-11-18T03:35:38;8.00;99.90
13464;DHT22;6804;48.774;9.174;2023-11-18T03:38:07;7.90;99.90
13464;DHT22;6804;48.774;9.174;2023-11-18T03:40:37;8.00;99.90
13464;DHT22;6804;48.774;9.174;2023-11-18T03:43:05;8.00;99.90
13464;DHT22;6804;48.774;9.174;2023-11-18T03:45:44;8.00;99.90
13464;DHT22;6804;48.774;9.174;2023-11-18T03:48:12;8.00;99.90
13464;DHT22;6804;48.774;9.174;2023-11-18T03:50:40;8.00;99.90
13464;DHT22;6804;48.774;9.174;2023-11-18T03:53:09;8.00;99.90
13464;DHT22;6804;48.774;9.174;2023-11-18T03:55:41;8.00;99.90
13464;DHT22;6804;48.774;9.174;2023-11-18T03:58:11;7.90;99.90
13464;DHT22;6804;48.774;9.174;2023-11-18T04:00:40;7.90;99.90
13464;DHT22;6804;48.774;9.174;2023-11-18T04:03:09;7.90;99.90
13464;DHT22;6804;48.774;9.174;2023-11-18T04:05:40;7.90;99.90
13464;DHT22;6804;48.774;9.174;2023-11-18T04:08:09;7.90;99.90
13464;DHT22;6804;48.774;9.174;2023-11-18T04:10:40;7.90;99.90
13464;DHT22;6804;48.774;9.174;2023-11-18T04:13:08;7.90;99.90
13464;DHT22;6804;48.774;9.174;2023-11-18T04:15:37;7.90;99.90
13464;DHT22;6804;48.774;9.174;2023-11-18T04:18:08;7.90;99.90
13464;DHT22;6804;48.774;9.174;2023-11-18T04:20:36;7.90;99.90
13464;DHT22;6804;48.774;9.174;2023-11-18T04:23:11;7.90;99.90
13464;DHT22;6804;48.774;9.174;2023-11-18T04:25:40;7.80;99.90
13464;DHT22;6804;48.774;9.174;2023-11-18T04:28:08;7.80;99.90
13464;DHT22;6804;48.774;9.174;2023-11-18T04:30:36;7.80;99.90
13464;DHT22;6804;48.774;9.174;2023-11-18T04:33:10;7.80;99.90
13464;DHT22;6804;48.774;9.174;2023-11-18T04:35:41;7.90;99.90
13464;DHT22;6804;48.774;9.174;2023-11-18T04:38:09;7.80;99.90
13464;DHT22;6804;48.774;9.174;2023-11-18T04:40:37;7.80;99.90
13464;DHT22;6804;48.774;9.174;2023-11-18T04:43:07;7.80;99.90
13464;DHT22;6804;48.774;9.174;2023-11-18T04:45:40;7.80;99.90
13464;DHT22;6804;48.774;9.174;2023-11-18T04:48:09;7.70;99.90
13464;DHT22;6804;48.774;9.174;2023-11-18T04:53:27;7.60;99.90
13464;DHT22;6804;48.774;9.174;2023-11-18T04:55:58;7.70;99.90
13464;DHT22;6804;48.774;9.174;2023-11-18T04:58:26;7.70;99.90
13464;DHT22;6804;48.774;9.174;2023-11-18T05:00:57;7.70;99.90
13464;DHT22;6804;48.774;9.174;2023-11-18T05:03:31;7.60;99.90
13464;DHT22;6804;48.774;9.174;2023-11-18T05:06:02;7.60;99.90
13464;DHT22;6804;48.774;9.174;2023-11-18T05:08:34;7.60;99.90
13464;DHT22;6804;48.774;9.174;2023-11-18T05:11:02;7.60;99.90
13464;DHT22;6804;48.774;9.174;2023-11-18T05:13:33;7.60;99.90
13464;DHT22;6804;48.774;9.174;2023-11-18T05:16:01;7.60;99.90
13464;DHT22;6804;48.774;9.174;2023-11-18T05:18:35;7.60;99.90
13464;DHT22;6804;48.774;9.174;2023-11-18T05:21:03;7.50;99.90
13464;DHT22;6804;48.774;9.174;2023-11-18T05:23:33;7.60;99.90
13464;DHT22;6804;48.774;9.174;2023-11-18T05:26:05;7.60;99.90
13464;DHT22;6804;48.774;9.174;2023-11-18T05:28:32;7.50;99.90
13464;DHT22;6804;48.774;9.174;2023-11-18T05:31:01;7.60;99.90
13464;DHT22;6804;48.774;9.174;2023-11-18T05:33:31;7.60;99.90
13464;DHT22;6804;48.774;9.174;2023-11-18T05:36:02;7.60;99.90
13464;DHT22;6804;48.774;9.174;2023-11-18T05:38:32;7.50;99.90
13464;DHT22;6804;48.774;9.174;2023-11-18T05:41:02;7.50;99.90
13464;DHT22;6804;48.774;9.174;2023-11-18T05:43:35;7.50;99.90
13464;DHT22;6804;48.774;9.174;2023-11-18T05:46:17;7.50;99.90
13464;DHT22;6804;48.774;9.174;2023-11-18T05:48:49;7.50;99.90
13464;DHT22;6804;48.774;9.174;2023-11-18T05:51:23;7.50;99.90
13464;DHT22;6804;48.774;9.174;2023-11-18T05:54:11;7.50;99.90
13464;DHT22;6804;48.774;9.174;2023-11-18T05:56:56;7.50;99.90
13464;DHT22;6804;48.774;9.174;2023-11-18T05:59:26;7.50;99.90
13464;DHT22;6804;48.774;9.174;2023-11-18T06:01:55;7.50;99.90
13464;DHT22;6804;48.774;9.174;2023-11-18T06:04:44;7.50;99.90
13464;DHT22;6804;48.774;9.174;2023-11-18T06:07:14;7.50;99.90
13464;DHT22;6804;48.774;9.174;2023-11-18T06:09:44;7.50;99.90
13464;DHT22;6804;48.774;9.174;2023-11-18T06:12:14;7.50;99.90
13464;DHT22;6804;48.774;9.174;2023-11-18T06:14:44;7.50;99.90
13464;DHT22;6804;48.774;9.174;2023-11-18T06:17:14;7.50;99.90
13464;DHT22;6804;48.774;9.174;2023-11-18T06:19:45;7.40;99.90
13464;DHT22;6804;48.774;9.174;2023-11-18T06:22:14;7.30;99.90
13464;DHT22;6804;48.774;9.174;2023-11-18T06:24:42;7.30;99.90
13464;DHT22;6804;48.774;9.174;2023-11-18T06:27:11;7.30;99.90
13464;DHT22;6804;48.774;9.174;2023-11-18T06:29:45;7.30;99.90
13464;DHT22;6804;48.774;9.174;2023-11-18T06:32:15;7.30;99.90
13464;DHT22;6804;48.774;9.174;2023-11-18T06:34:44;7.30;99.90
13464;DHT22;6804;48.774;9.174;2023-11-18T06:37:14;7.30;99.90
13464;DHT22;6804;48.774;9.174;2023-11-18T06:39:44;7.30;99.90
13464;DHT22;6804;48.774;9.174;2023-11-18T06:42:16;7.30;99.90
13464;DHT22;6804;48.774;9.174;2023-11-18T06:44:48;7.20;99.90
13464;DHT22;6804;48.774;9.174;2023-11-18T06:47:16;7.20;99.90
13464;DHT22;6804;48.774;9.174;2023-11-18T06:49:45;7.10;99.90
13464;DHT22;6804;48.774;9.174;2023-11-18T06:52:15;7.10;99.90
13464;DHT22;6804;48.774;9.174;2023-11-18T06:54:46;7.10;99.90
13464;DHT22;6804;48.774;9.174;2023-11-18T06:57:18;7.10;99.90
13464;DHT22;6804;48.774;9.174;2023-11-18T06:59:46;7.10;99.90
13464;DHT22;6804;48.774;9.174;2023-11-18T07:02:14;7.10;99.90
13464;DHT22;6804;48.774;9.174;2023-11-18T07:04:45;7.10;99.90
13464;DHT22;6804;48.774;9.174;2023-11-18T07:07:17;7.10;99.90
13464;DHT22;6804;48.774;9.174;2023-11-18T07:09:44;7.10;99.90
13464;DHT22;6804;48.774;9.174;2023-11-18T07:12:13;7.10;99.90
13464;DHT22;6804;48.774;9.174;2023-11-18T07:14:43;7.10;99.90
13464;DHT22;6804;48.774;9.174;2023-11-18T07:17:14;7.10;99.90
13464;DHT22;6804;48.774;9.174;2023-11-18T07:19:48;7.20;99.90
13464;DHT22;6804;48.774;9.174;2023-11-18T07:22:19;7.20;99.90
13464;DHT22;6804;48.774;9.174;2023-11-18T07:24:47;7.20;99.90
13464;DHT22;6804;48.774;9.174;2023-11-18T07:27:18;7.30;99.90
13464;DHT22;6804;48.774;9.174;2023-11-18T07:29:46;7.40;99.90
13464;DHT22;6804;48.774;9.174;2023-11-18T07:32:14;7.40;99.90
13464;DHT22;6804;48.774;9.174;2023-11-18T07:34:45;7.40;99.90
13464;DHT22;6804;48.774;9.174;2023-11-18T07:37:13;7.50;99.90
13464;DHT22;6804;48.774;9.174;2023-11-18T07:39:47;7.50;99.90
13464;DHT22;6804;48.774;9.174;2023-11-18T07:42:15;7.50;99.90
13464;DHT22;6804;48.774;9.174;2023-11-18T07:44:47;7.50;99.90
13464;DHT22;6804;48.774;9.174;2023-11-18T07:47:18;7.60;99.90
13464;DHT22;6804;48.774;9.174;2023-11-18T07:49:47;7.60;99.90
13464;DHT22;6804;48.774;9.174;2023-11-18T07:52:17;7.60;99.90
13464;DHT22;6804;48.774;9.174;2023-11-18T07:54:47;7.70;99.90
13464;DHT22;6804;48.774;9.174;2023-11-18T07:57:15;7.70;99.90
13464;DHT22;6804;48.774;9.174;2023-11-18T07:59:45;7.80;99.90
13464;DHT22;6804;48.774;9.174;2023-11-18T08:02:13;7.80;99.90
13464;DHT22;6804;48.774;9.174;2023-11-18T08:04:45;7.80;99.90
13464;DHT22;6804;48.774;9.174;2023-11-18T08:07:13;7.90;99.90
13464;DHT22;6804;48.774;9.174;2023-11-18T08:09:49;7.90;99.90
13464;DHT22;6804;48.774;9.174;2023-11-18T08:12:17;8.00;99.90
13464;DHT22;6804;48.774;9.174;2023-11-18T08:14:47;8.00;99.90
13464;DHT22;6804;48.774;9.174;2023-11-18T08:17:17;8.10;99.90
13464;DHT22;6804;48.774;9.174;2023-11-18T08:19:48;8.10;99.90
13464;DHT22;6804;48.774;9.174;2023-11-18T08:22:17;8.20;99.90
13464;DHT22;6804;48.774;9.174;2023-11-18T08:24:50;8.20;99.90
13464;DHT22;6804;48.774;9.174;2023-11-18T08:27:18;8.30;99.90
13464;DHT22;6804;48.774;9.174;2023-11-18T08:29:49;8.30;99.90
13464;DHT22;6804;48.774;9.174;2023-11-18T08:32:17;8.30;99.90
13464;DHT22;6804;48.774;9.174;2023-11-18T08:34:45;8.40;99.90
13464;DHT22;6804;48.774;9.174;2023-11-18T08:37:17;8.40;99.90
13464;DHT22;6804;48.774;9.174;2023-11-18T08:39:48;8.30;99.90
13464;DHT22;6804;48.774;9.174;2023-11-18T08:42:17;8.30;99.90
13464;DHT22;6804;48.774;9.174;2023-11-18T08:44:45;8.30;99.90
13464;DHT22;6804;48.774;9.174;2023-11-18T08:47:20;8.30;99.90
13464;DHT22;6804;48.774;9.174;2023-11-18T08:49:47;8.40;99.90
13464;DHT22;6804;48.774;9.174;2023-11-18T08:52:18;8.40;99.90
13464;DHT22;6804;48.774;9.174;2023-11-18T08:54:46;8.40;99.90
13464;DHT22;6804;48.774;9.174;2023-11-18T08:57:29;8.40;99.90
13464;DHT22;6804;48.774;9.174;2023-11-18T09:00:18;8.50;99.90
13464;DHT22;6804;48.774;9.174;2023-11-18T09:03:00;8.60;99.90
13464;DHT22;6804;48.774;9.174;2023-11-18T09:05:32;8.60;99.90
13464;DHT22;6804;48.774;9.174;2023-11-18T09:07:59;8.70;99.90
13464;DHT22;6804;48.774;9.174;2023-11-18T09:10:28;8.70;99.90
13464;DHT22;6804;48.774;9.174;2023-11-18T09:12:58;8.80;99.90
13464;DHT22;6804;48.774;9.174;2023-11-18T09:15:26;8.80;99.90
13464;DHT22;6804;48.774;9.174;2023-11-18T09:17:57;8.80;99.90
13464;DHT22;6804;48.774;9.174;2023-11-18T09:20:26;8.80;99.90
13464;DHT22;6804;48.774;9.174;2023-11-18T09:22:55;8.80;99.90
13464;DHT22;6804;48.774;9.174;2023-11-18T09:25:25;8.90;99.90
13464;DHT22;6804;48.774;9.174;2023-11-18T09:27:55;8.90;99.90
13464;DHT22;6804;48.774;9.174;2023-11-18T09:30:30;9.00;99.90
13464;DHT22;6804;48.774;9.174;2023-11-18T09:33:00;9.00;99.90
13464;DHT22;6804;48.774;9.174;2023-11-18T09:35:32;9.10;99.90
13464;DHT22;6804;48.774;9.174;2023-11-18T09:38:00;9.10;99.90
13464;DHT22;6804;48.774;9.174;2023-11-18T09:40:33;9.20;99.90
13464;DHT22;6804;48.774;9.174;2023-11-18T09:43:12;9.20;99.90
13464;DHT22;6804;48.774;9.174;2023-11-18T09:45:45;9.20;99.90
13464;DHT22;6804;48.774;9.174;2023-11-18T09:48:20;9.30;99.90
13464;DHT22;6804;48.774;9.174;2023-11-18T09:50:51;9.30;99.90
13464;DHT22;6804;48.774;9.174;2023-11-18T09:53:23;9.30;99.90
13464;DHT22;6804;48.774;9.174;2023-11-18T09:56:00;9.40;99.90
13464;DHT22;6804;48.774;9.174;2023-11-18T09:58:44;9.40;99.90
13464;DHT22;6804;48.774;9.174;2023-11-18T10:01:20;9.40;99.90
13464;DHT22;6804;48.774;9.174;2023-11-18T10:03:51;9.40;99.90
13464;DHT22;6804;48.774;9.174;2023-11-18T10:06:20;9.50;99.90
13464;DHT22;6804;48.774;9.174;2023-11-18T10:08:51;9.50;99.90
13464;DHT22;6804;48.774;9.174;2023-11-18T10:11:20;9.50;99.90
13464;DHT22;6804;48.774;9.174;2023-11-18T10:13:50;9.60;99.90
13464;DHT22;6804;48.774;9.174;2023-11-18T10:16:28;9.60;99.90
13464;DHT22;6804;48.774;9.174;2023-11-18T10:19:03;9.60;99.90
13464;DHT22;6804;48.774;9.174;2023-11-18T10:21:40;9.70;99.90
13464;DHT22;6804;48.774;9.174;2023-11-18T10:24:12;9.60;99.90
13464;DHT22;6804;48.774;9.174;2023-11-18T10:26:54;9.60;99.90
13464;DHT22;6804;48.774;9.174;2023-11-18T10:29:24;9.70;99.90
13464;DHT22;6804;48.774;9.174;2023-11-18T10:32:07;9.70;99.90
13464;DHT22;6804;48.774;9.174;2023-11-18T10:34:36;9.80;99.90
13464;DHT22;6804;48.774;9.174;2023-11-18T10:37:05;9.80;99.90
13464;DHT22;6804;48.774;9.174;2023-11-18T10:39:38;9.80;99.90
13464;DHT22;6804;48.774;9.174;2023-11-18T10:42:07;9.90;99.90
13464;DHT22;6804;48.774;9.174;2023-11-18T10:44:54;9.90;99.90
13464;DHT22;6804;48.774;9.174;2023-11-18T10:47:34;9.90;99.90
13464;DHT22;6804;48.774;9.174;2023-11-18T10:50:06;10.00;99.90
13464;DHT22;6804;48.774;9.174;2023-11-18T10:52:36;10.00;99.90
13464;DHT22;6804;48.774;9.174;2023-11-18T10:55:09;10.10;99.90
13464;DHT22;6804;48.774;9.174;2023-11-18T10:57:39;10.10;99.90
13464;DHT22;6804;48.774;9.174;2023-11-18T11:00:09;10.10;99.90
13464;DHT22;6804;48.774;9.174;2023-11-18T11:02:43;10.10;99.90
13464;DHT22;6804;48.774;9.174;2023-11-18T11:05:12;10.20;99.90
13464;DHT22;6804;48.774;9.174;2023-11-18T11:07:43;10.10;99.90
13464;DHT22;6804;48.774;9.174;2023-11-18T11:10:14;10.20;99.90
13464;DHT22;6804;48.774;9.174;2023-11-18T11:12:50;10.10;99.90
13464;DHT22;6804;48.774;9.174;2023-11-18T11:15:23;10.20;99.90
13464;DHT22;6804;48.774;9.174;2023-11-18T11:18:01;10.10;99.90
13464;DHT22;6804;48.774;9.174;2023-11-18T11:20:39;10.20;99.90
13464;DHT22;6804;48.774;9.174;2023-11-18T11:23:18;10.20;99.90
13464;DHT22;6804;48.774;9.174;2023-11-18T11:26:00;10.30;99.90
13464;DHT22;6804;48.774;9.174;2023-11-18T11:28:40;10.30;99.90
13464;DHT22;6804;48.774;9.174;2023-11-18T11:31:16;10.30;99.90
13464;DHT22;6804;48.774;9.174;2023-11-18T11:34:02;10.40;99.90
13464;DHT22;6804;48.774;9.174;2023-11-18T11:36:37;10.40;99.90
13464;DHT22;6804;48.774;9.174;2023-11-18T11:39:11;10.50;99.90
13464;DHT22;6804;48.774;9.174;2023-11-18T11:41:46;10.40;99.90
13464;DHT22;6804;48.774;9.174;2023-11-18T11:44:18;10.40;99.90
13464;DHT22;6804;48.774;9.174;2023-11-18T11:46:54;10.40;99.90
13464;DHT22;6804;48.774;9.174;2023-11-18T11:49:26;10.40;99.90
13464;DHT22;6804;48.774;9.174;2023-11-18T11:52:03;10.30;99.90
13464;DHT22;6804;48.774;9.174;2023-11-18T11:54:40;10.30;99.90
13464;DHT22;6804;48.774;9.174;2023-11-18T11:57:11;10.30;99.90
13464;DHT22;6804;48.774;9.174;2023-11-18T11:59:56;10.30;99.90
13464;DHT22;6804;48.774;9.174;2023-11-18T12:02:27;10.30;99.90
13464;DHT22;6804;48.774;9.174;2023-11-18T12:05:00;10.20;99.90
13464;DHT22;6804;48.774;9.174;2023-11-18T12:07:33;10.20;99.90
13464;DHT22;6804;48.774;9.174;2023-11-18T12:10:09;10.20;99.90
13464;DHT22;6804;48.774;9.174;2023-11-18T12:12:48;10.20;99.90
13464;DHT22;6804;48.774;9.174;2023-11-18T12:15:47;10.20;99.90
13464;DHT22;6804;48.774;9.174;2023-11-18T12:18:21;10.30;99.90
13464;DHT22;6804;48.774;9.174;2023-11-18T12:20:54;10.20;99.90
13464;DHT22;6804;48.774;9.174;2023-11-18T12:23:26;10.30;99.90
13464;DHT22;6804;48.774;9.174;2023-11-18T12:25:57;10.30;99.90
13464;DHT22;6804;48.774;9.174;2023-11-18T12:28:28;10.30;99.90
13464;DHT22;6804;48.774;9.174;2023-11-18T12:31:01;10.20;99.90
13464;DHT22;6804;48.774;9.174;2023-11-18T12:34:01;10.20;99.90
13464;DHT22;6804;48.774;9.174;2023-11-18T12:37:06;10.20;99.90
13464;DHT22;6804;48.774;9.174;2023-11-18T12:42:59;10.20;99.90
13464;DHT22;6804;48.774;9.174;2023-11-18T12:48:43;10.10;99.90
13464;DHT22;6804;48.774;9.174;2023-11-18T12:51:13;10.10;99.90
13464;DHT22;6804;48.774;9.174;2023-11-18T12:53:54;10.10;99.90
13464;DHT22;6804;48.774;9.174;2023-11-18T12:56:24;10.10;99.90
13464;DHT22;6804;48.774;9.174;2023-11-18T12:58:54;10.10;99.90
13464;DHT22;6804;48.774;9.174;2023-11-18T13:01:22;10.10;99.90
13464;DHT22;6804;48.774;9.174;2023-11-18T13:03:57;10.10;99.90
13464;DHT22;6804;48.774;9.174;2023-11-18T13:06:32;10.10;99.90
13464;DHT22;6804;48.774;9.174;2023-11-18T13:09:05;10.10;99.90
13464;DHT22;6804;48.774;9.174;2023-11-18T13:11:36;10.10;99.90
13464;DHT22;6804;48.774;9.174;2023-11-18T13:14:09;10.10;99.90
13464;DHT22;6804;48.774;9.174;2023-11-18T13:16:40;10.10;99.90
13464;DHT22;6804;48.774;9.174;2023-11-18T13:19:24;10.00;99.90
13464;DHT22;6804;48.774;9.174;2023-11-18T13:21:57;10.10;99.90
13464;DHT22;6804;48.774;9.174;2023-11-18T13:24:28;10.10;99.90
13464;DHT22;6804;48.774;9.174;2023-11-18T13:26:59;10.00;99.90
13464;DHT22;6804;48.774;9.174;2023-11-18T13:29:30;10.00;99.90
13464;DHT22;6804;48.774;9.174;2023-11-18T13:31:59;10.00;99.90
13464;DHT22;6804;48.774;9.174;2023-11-18T13:34:31;9.90;99.90
13464;DHT22;6804;48.774;9.174;2023-11-18T13:37:05;9.90;99.90
13464;DHT22;6804;48.774;9.174;2023-11-18T13:39:38;9.90;99.90
13464;DHT22;6804;48.774;9.174;2023-11-18T13:42:21;9.90;99.90
13464;DHT22;6804;48.774;9.174;2023-11-18T13:44:59;9.90;99.90
13464;DHT22;6804;48.774;9.174;2023-11-18T13:47:28;9.80;99.90
13464;DHT22;6804;48.774;9.174;2023-11-18T13:49:57;9.90;99.90
13464;DHT22;6804;48.774;9.174;2023-11-18T13:52:26;9.90;99.90
13464;DHT22;6804;48.774;9.174;2023-11-18T13:55:07;9.90;99.90
13464;DHT22;6804;48.774;9.174;2023-11-18T13:57:36;9.90;99.90
13464;DHT22;6804;48.774;9.174;2023-11-18T14:00:06;10.00;99.90
13464;DHT22;6804;48.774;9.174;2023-11-18T14:02:42;9.90;99.90
13464;DHT22;6804;48.774;9.174;2023-11-18T14:05:16;10.00;99.90
13464;DHT22;6804;48.774;9.174;2023-11-18T14:07:46;10.00;99.90
13464;DHT22;6804;48.774;9.174;2023-11-18T14:10:19;10.00;99.90
13464;DHT22;6804;48.774;9.174;2023-11-18T14:13:01;10.00;99.90
13464;DHT22;6804;48.774;9.174;2023-11-18T14:15:32;10.10;99.90
13464;DHT22;6804;48.774;9.174;2023-11-18T14:18:02;10.00;99.90
13464;DHT22;6804;48.774;9.174;2023-11-18T14:20:30;10.00;99.90
13464;DHT22;6804;48.774;9.174;2023-11-18T14:22:58;10.00;99.90
13464;DHT22;6804;48.774;9.174;2023-11-18T14:25:29;10.00;99.90
13464;DHT22;6804;48.774;9.174;2023-11-18T14:28:00;9.90;99.90
13464;DHT22;6804;48.774;9.174;2023-11-18T14:30:29;10.00;99.90
13464;DHT22;6804;48.774;9.174;2023-11-18T14:32:57;10.00;99.90
13464;DHT22;6804;48.774;9.174;2023-11-18T14:35:25;10.00;99.90
13464;DHT22;6804;48.774;9.174;2023-11-18T14:37:58;10.00;99.90
13464;DHT22;6804;48.774;9.174;2023-11-18T14:40:30;9.90;99.90
13464;DHT22;6804;48.774;9.174;2023-11-18T14:43:05;9.90;99.90
13464;DHT22;6804;48.774;9.174;2023-11-18T14:45:34;9.90;99.90
13464;DHT22;6804;48.774;9.174;2023-11-18T14:48:06;9.90;99.90
13464;DHT22;6804;48.774;9.174;2023-11-18T14:50:34;9.90;99.90
13464;DHT22;6804;48.774;9.174;2023-11-18T14:53:03;9.90;99.90
13464;DHT22;6804;48.774;9.174;2023-11-18T14:55:37;9.80;99.90
13464;DHT22;6804;48.774;9.174;2023-11-18T14:58:05;9.80;99.90
13464;DHT22;6804;48.774;9.174;2023-11-18T15:00:33;9.90;99.90
13464;DHT22;6804;48.774;9.174;2023-11-18T15:03:06;9.90;99.90
13464;DHT22;6804;48.774;9.174;2023-11-18T15:05:35;9.90;99.90
13464;DHT22;6804;48.774;9.174;2023-11-18T15:08:07;9.90;99.90
13464;DHT22;6804;48.774;9.174;2023-11-18T15:10:40;9.90;99.90
13464;DHT22;6804;48.774;9.174;2023-11-18T15:13:14;9.90;99.90
13464;DHT22;6804;48.774;9.174;2023-11-18T15:15:47;9.90;99.90
13464;DHT22;6804;48.774;9.174;2023-11-18T15:18:18;9.90;99.90
13464;DHT22;6804;48.774;9.174;2023-11-18T15:20:49;9.90;99.90
13464;DHT22;6804;48.774;9.174;2023-11-18T15:23:18;9.90;99.90
13464;DHT22;6804;48.774;9.174;2023-11-18T15:25:49;9.90;99.90
13464;DHT22;6804;48.774;9.174;2023-11-18T15:28:19;9.90;99.90
13464;DHT22;6804;48.774;9.174;2023-11-18T15:30:49;9.80;99.90
13464;DHT22;6804;48.774;9.174;2023-11-18T15:33:17;9.90;99.90
13464;DHT22;6804;48.774;9.174;2023-11-18T15:35:46;9.90;99.90
13464;DHT22;6804;48.774;9.174;2023-11-18T15:38:17;9.90;99.90
13464;DHT22;6804;48.774;9.174;2023-11-18T15:40:50;9.80;99.90
13464;DHT22;6804;48.774;9.174;2023-11-18T15:43:20;9.80;99.90
13464;DHT22;6804;48.774;9.174;2023-11-18T15:45:49;9.80;99.90
13464;DHT22;6804;48.774;9.174;2023-11-18T15:48:20;9.80;99.90
13464;DHT22;6804;48.774;9.174;2023-11-18T15:50:48;9.90;99.90
13464;DHT22;6804;48.774;9.174;2023-11-18T15:53:16;9.90;99.90
13464;DHT22;6804;48.774;9.174;2023-11-18T15:55:51;9.90;99.90
13464;DHT22;6804;48.774;9.174;2023-11-18T15:58:19;9.80;99.90
13464;DHT22;6804;48.774;9.174;2023-11-18T16:00:52;9.90;99.90
13464;DHT22;6804;48.774;9.174;2023-11-18T16:03:23;9.90;99.90
13464;DHT22;6804;48.774;9.174;2023-11-18T16:05:54;9.80;99.90
13464;DHT22;6804;48.774;9.174;2023-11-18T16:08:23;9.80;99.90
13464;DHT22;6804;48.774;9.174;2023-11-18T16:10:53;9.80;99.90
13464;DHT22;6804;48.774;9.174;2023-11-18T16:13:23;9.80;99.90
13464;DHT22;6804;48.774;9.174;2023-11-18T16:15:52;9.80;99.90
13464;DHT22;6804;48.774;9.174;2023-11-18T16:18:20;9.80;99.90
13464;DHT22;6804;48.774;9.174;2023-11-18T16:20:49;9.80;99.90
13464;DHT22;6804;48.774;9.174;2023-11-18T16:23:23;9.70;99.90
13464;DHT22;6804;48.774;9.174;2023-11-18T16:25:55;9.70;99.90
13464;DHT22;6804;48.774;9.174;2023-11-18T16:28:23;9.60;99.90
13464;DHT22;6804;48.774;9.174;2023-11-18T16:30:53;9.60;99.90
13464;DHT22;6804;48.774;9.174;2023-11-18T16:33:23;9.60;99.90
13464;DHT22;6804;48.774;9.174;2023-11-18T16:35:51;9.60;99.90
13464;DHT22;6804;48.774;9.174;2023-11-18T16:38:20;9.60;99.90